Airfield :
LOGIN :

Register | Disclaimer

   EN    FR    IT 

 










Legend :    VFR   Marginal VFR   IFR   Intensive IFR   Very Intensive IFR
Visi :
Ceiling :
>= 8 km
>= 3000ft
5 to 8 km
1000 to 3000 ft
1500m to 5 km
500 to 1000 ft
800 to 1500m
200 to 500 ft
< 800m
< 200 ft
Symbols :   Thunderstorms  Fog  Heavy snow  Heavy precipitations  Wind > 20 kt
SIGMETs :     Misc.  Thunderstorms  Icing  Turbulence  Mountain Waves  Volcanic Ashes






- Airport Elevation : 408 ft
- IATA code : FKB


EDSB - Karlsruhe Baden Baden

CURRENT METAR :
  • 050420Z VRB01KT 9999 BCFG NSC 11/10 Q1019

EXPIRED METARs :
  • 050350Z 11001KT 9999 BCFG NSC 11/10 Q1018
  • 050320Z 00000KT CAVOK 11/10 Q1018
  • 050250Z AUTO 11001KT 9000 // NCD 11/10 Q1018
  • 050220Z AUTO 00000KT 9000 // NCD 11/11 Q1018
  • 050150Z AUTO 00000KT 8000 1100 R21/P2000N // NCD 11/11 Q1018
  • 050120Z AUTO VRB01KT 9000 // NCD 12/11 Q1018

TAF TAF EDSB
Valid from the 05 at 04:00 until the 06 at 00:00 UTC


050300Z 0504/0524 VRB03KT CAVOK
BECMG 0507/0509 03007KT
BECMG 0517/0519 VRB03KT



MET'MAP, your aeronautical weather chart ! - Copyright ORBIFLY December 2007 - Disclaimer

ORBIFLY MET'MAP TEAM :

Programming & Development : Alexandra Zaïnal
Concept & original design : Baudouin d'Aumeries
Assistance for programming : Marc-Olivier Méhu
Technical & hardware support : Manuel Goepfert

Contact : metmap@orbifly.com




SOURCES & CREDITS :

   NOAA